sensor_id;sensor_type;location;lat;lon;timestamp;temperature;humidity
11083;DHT22;5595;50.186;8.468;2023-02-27T00:01:09;-0.90;99.90
11083;DHT22;5595;50.186;8.468;2023-02-27T00:03:36;-0.90;99.90
11083;DHT22;5595;50.186;8.468;2023-02-27T00:06:03;-1.00;99.90
11083;DHT22;5595;50.186;8.468;2023-02-27T00:08:30;-1.00;99.90
11083;DHT22;5595;50.186;8.468;2023-02-27T00:10:57;-1.00;99.90
11083;DHT22;5595;50.186;8.468;2023-02-27T00:13:24;-0.80;99.90
11083;DHT22;5595;50.186;8.468;2023-02-27T00:15:51;-0.90;99.90
11083;DHT22;5595;50.186;8.468;2023-02-27T00:18:19;-1.10;99.90
11083;DHT22;5595;50.186;8.468;2023-02-27T00:20:46;-0.90;99.90
11083;DHT22;5595;50.186;8.468;2023-02-27T00:23:13;-0.90;99.90
11083;DHT22;5595;50.186;8.468;2023-02-27T00:25:41;-0.90;99.90
11083;DHT22;5595;50.186;8.468;2023-02-27T00:28:08;-0.90;99.90
11083;DHT22;5595;50.186;8.468;2023-02-27T00:30:35;-0.90;99.90
11083;DHT22;5595;50.186;8.468;2023-02-27T00:33:02;-1.00;99.90
11083;DHT22;5595;50.186;8.468;2023-02-27T00:35:30;-1.00;99.90
11083;DHT22;5595;50.186;8.468;2023-02-27T00:37:57;-0.90;99.90
11083;DHT22;5595;50.186;8.468;2023-02-27T00:40:24;-1.00;99.90
11083;DHT22;5595;50.186;8.468;2023-02-27T00:42:51;-1.00;99.90
11083;DHT22;5595;50.186;8.468;2023-02-27T00:45:18;-0.70;99.90
11083;DHT22;5595;50.186;8.468;2023-02-27T00:47:46;-1.00;99.90
11083;DHT22;5595;50.186;8.468;2023-02-27T00:50:15;-1.00;99.90
11083;DHT22;5595;50.186;8.468;2023-02-27T00:52:43;-0.90;99.90
11083;DHT22;5595;50.186;8.468;2023-02-27T00:55:10;-1.00;99.90
11083;DHT22;5595;50.186;8.468;2023-02-27T00:57:37;-1.00;99.90
11083;DHT22;5595;50.186;8.468;2023-02-27T01:00:06;-1.00;99.90
11083;DHT22;5595;50.186;8.468;2023-02-27T01:02:34;-1.00;99.90
11083;DHT22;5595;50.186;8.468;2023-02-27T01:05:01;-1.00;99.90
11083;DHT22;5595;50.186;8.468;2023-02-27T01:07:28;-1.10;99.90
11083;DHT22;5595;50.186;8.468;2023-02-27T01:09:56;-1.00;99.90
11083;DHT22;5595;50.186;8.468;2023-02-27T01:12:23;-0.80;99.90
11083;DHT22;5595;50.186;8.468;2023-02-27T01:14:50;-1.00;99.90
11083;DHT22;5595;50.186;8.468;2023-02-27T01:17:17;-1.10;99.90
11083;DHT22;5595;50.186;8.468;2023-02-27T01:19:44;-1.10;99.90
11083;DHT22;5595;50.186;8.468;2023-02-27T01:22:11;-1.10;99.90
11083;DHT22;5595;50.186;8.468;2023-02-27T01:24:37;-1.10;99.90
11083;DHT22;5595;50.186;8.468;2023-02-27T01:27:06;-1.10;99.90
11083;DHT22;5595;50.186;8.468;2023-02-27T01:29:33;-1.10;99.90
11083;DHT22;5595;50.186;8.468;2023-02-27T01:31:59;-1.20;99.90
11083;DHT22;5595;50.186;8.468;2023-02-27T01:34:26;-1.10;99.90
11083;DHT22;5595;50.186;8.468;2023-02-27T01:36:53;-1.30;99.90
11083;DHT22;5595;50.186;8.468;2023-02-27T01:39:20;-1.10;99.90
11083;DHT22;5595;50.186;8.468;2023-02-27T01:41:47;-1.10;99.90
11083;DHT22;5595;50.186;8.468;2023-02-27T01:44:15;-0.90;99.90
11083;DHT22;5595;50.186;8.468;2023-02-27T01:46:42;-1.20;99.90
11083;DHT22;5595;50.186;8.468;2023-02-27T01:49:14;-1.30;99.90
11083;DHT22;5595;50.186;8.468;2023-02-27T01:51:45;-1.20;99.90
11083;DHT22;5595;50.186;8.468;2023-02-27T01:54:23;-1.20;99.90
11083;DHT22;5595;50.186;8.468;2023-02-27T01:56:51;-1.00;99.90
11083;DHT22;5595;50.186;8.468;2023-02-27T01:59:20;-1.30;99.90
11083;DHT22;5595;50.186;8.468;2023-02-27T02:01:49;-1.30;99.90
11083;DHT22;5595;50.186;8.468;2023-02-27T02:04:22;-1.30;99.90
11083;DHT22;5595;50.186;8.468;2023-02-27T02:06:54;-1.30;99.90
11083;DHT22;5595;50.186;8.468;2023-02-27T02:09:24;-1.30;99.90
11083;DHT22;5595;50.186;8.468;2023-02-27T02:11:51;-1.30;99.90
11083;DHT22;5595;50.186;8.468;2023-02-27T02:14:20;-1.30;99.90
11083;DHT22;5595;50.186;8.468;2023-02-27T02:17:01;-1.30;99.90
11083;DHT22;5595;50.186;8.468;2023-02-27T02:28:52;-1.30;99.90
11083;DHT22;5595;50.186;8.468;2023-02-27T02:37:49;-1.40;99.90
11083;DHT22;5595;50.186;8.468;2023-02-27T02:40:27;-1.50;99.90
11083;DHT22;5595;50.186;8.468;2023-02-27T02:43:06;-1.10;99.90
11083;DHT22;5595;50.186;8.468;2023-02-27T02:45:42;-1.40;99.90
11083;DHT22;5595;50.186;8.468;2023-02-27T02:48:16;-1.50;99.90
11083;DHT22;5595;50.186;8.468;2023-02-27T02:50:49;-1.50;99.90
11083;DHT22;5595;50.186;8.468;2023-02-27T02:53:25;-1.50;99.90
11083;DHT22;5595;50.186;8.468;2023-02-27T02:55:59;-1.50;99.90
11083;DHT22;5595;50.186;8.468;2023-02-27T02:58:32;-1.50;99.90
11083;DHT22;5595;50.186;8.468;2023-02-27T03:01:04;-1.50;99.90
11083;DHT22;5595;50.186;8.468;2023-02-27T03:03:37;-1.50;99.90
11083;DHT22;5595;50.186;8.468;2023-02-27T03:06:09;-1.50;99.90
11083;DHT22;5595;50.186;8.468;2023-02-27T03:08:43;-1.60;99.90
11083;DHT22;5595;50.186;8.468;2023-02-27T03:11:14;-1.60;99.90
11083;DHT22;5595;50.186;8.468;2023-02-27T03:13:46;-1.60;99.90
11083;DHT22;5595;50.186;8.468;2023-02-27T03:16:20;-1.50;99.90
11083;DHT22;5595;50.186;8.468;2023-02-27T03:18:53;-1.50;99.90
11083;DHT22;5595;50.186;8.468;2023-02-27T03:21:25;-1.80;99.90
11083;DHT22;5595;50.186;8.468;2023-02-27T03:23:55;-1.50;99.90
11083;DHT22;5595;50.186;8.468;2023-02-27T03:26:32;-1.60;99.90
11083;DHT22;5595;50.186;8.468;2023-02-27T03:29:03;-1.40;99.90
11083;DHT22;5595;50.186;8.468;2023-02-27T03:31:37;-1.60;99.90
11083;DHT22;5595;50.186;8.468;2023-02-27T03:34:11;-1.50;99.90
11083;DHT22;5595;50.186;8.468;2023-02-27T03:36:45;-1.60;99.90
11083;DHT22;5595;50.186;8.468;2023-02-27T03:39:25;-1.60;99.90
11083;DHT22;5595;50.186;8.468;2023-02-27T03:41:59;-1.80;99.90
11083;DHT22;5595;50.186;8.468;2023-02-27T03:44:31;-1.70;99.90
11083;DHT22;5595;50.186;8.468;2023-02-27T03:47:01;-1.50;99.90
11083;DHT22;5595;50.186;8.468;2023-02-27T03:49:28;-1.60;99.90
11083;DHT22;5595;50.186;8.468;2023-02-27T03:51:55;-1.60;99.90
11083;DHT22;5595;50.186;8.468;2023-02-27T03:54:26;-1.60;99.90
11083;DHT22;5595;50.186;8.468;2023-02-27T03:56:58;-1.60;99.90
11083;DHT22;5595;50.186;8.468;2023-02-27T03:59:26;-1.60;99.90
11083;DHT22;5595;50.186;8.468;2023-02-27T04:01:54;-1.60;99.90
11083;DHT22;5595;50.186;8.468;2023-02-27T04:04:22;-1.80;99.90
11083;DHT22;5595;50.186;8.468;2023-02-27T04:06:54;-1.60;99.90
11083;DHT22;5595;50.186;8.468;2023-02-27T04:09:54;-1.30;99.90
11083;DHT22;5595;50.186;8.468;2023-02-27T04:12:41;-1.60;99.90
11083;DHT22;5595;50.186;8.468;2023-02-27T04:15:21;-1.60;99.90
11083;DHT22;5595;50.186;8.468;2023-02-27T04:17:57;-1.80;99.90
11083;DHT22;5595;50.186;8.468;2023-02-27T04:20:38;-1.60;99.90
11083;DHT22;5595;50.186;8.468;2023-02-27T04:23:11;-1.60;99.90
11083;DHT22;5595;50.186;8.468;2023-02-27T04:25:46;-1.60;99.90
11083;DHT22;5595;50.186;8.468;2023-02-27T04:28:20;-1.60;99.90
11083;DHT22;5595;50.186;8.468;2023-02-27T04:30:57;-1.60;99.90
11083;DHT22;5595;50.186;8.468;2023-02-27T04:33:34;-1.70;99.90
11083;DHT22;5595;50.186;8.468;2023-02-27T04:36:09;-1.60;99.90
11083;DHT22;5595;50.186;8.468;2023-02-27T04:38:41;-1.60;99.90
11083;DHT22;5595;50.186;8.468;2023-02-27T04:41:13;-1.70;99.90
11083;DHT22;5595;50.186;8.468;2023-02-27T04:43:43;-1.70;99.90
11083;DHT22;5595;50.186;8.468;2023-02-27T04:46:14;-1.70;99.90
11083;DHT22;5595;50.186;8.468;2023-02-27T04:48:47;-1.40;99.90
11083;DHT22;5595;50.186;8.468;2023-02-27T04:51:20;-1.40;99.90
11083;DHT22;5595;50.186;8.468;2023-02-27T04:53:52;-1.70;99.90
11083;DHT22;5595;50.186;8.468;2023-02-27T04:56:22;-1.60;99.90
11083;DHT22;5595;50.186;8.468;2023-02-27T04:58:53;-1.30;99.90
11083;DHT22;5595;50.186;8.468;2023-02-27T05:01:27;-1.50;99.90
11083;DHT22;5595;50.186;8.468;2023-02-27T05:03:57;-1.70;99.90
11083;DHT22;5595;50.186;8.468;2023-02-27T05:06:28;-1.60;99.90
11083;DHT22;5595;50.186;8.468;2023-02-27T05:09:00;-1.60;99.90
11083;DHT22;5595;50.186;8.468;2023-02-27T05:11:35;-1.70;99.90
11083;DHT22;5595;50.186;8.468;2023-02-27T05:14:11;-1.70;99.90
11083;DHT22;5595;50.186;8.468;2023-02-27T05:16:41;-1.50;99.90
11083;DHT22;5595;50.186;8.468;2023-02-27T05:19:10;-1.70;99.90
11083;DHT22;5595;50.186;8.468;2023-02-27T05:21:43;-1.70;99.90
11083;DHT22;5595;50.186;8.468;2023-02-27T05:24:18;-1.70;99.90
11083;DHT22;5595;50.186;8.468;2023-02-27T05:27:09;-1.70;99.90
11083;DHT22;5595;50.186;8.468;2023-02-27T05:29:45;-1.40;99.90
11083;DHT22;5595;50.186;8.468;2023-02-27T05:32:20;-1.70;99.90
11083;DHT22;5595;50.186;8.468;2023-02-27T05:34:51;-1.70;99.90
11083;DHT22;5595;50.186;8.468;2023-02-27T05:37:22;-1.70;99.90
11083;DHT22;5595;50.186;8.468;2023-02-27T05:39:51;-1.70;99.90
11083;DHT22;5595;50.186;8.468;2023-02-27T05:42:21;-1.70;99.90
11083;DHT22;5595;50.186;8.468;2023-02-27T05:44:54;-1.70;99.90
11083;DHT22;5595;50.186;8.468;2023-02-27T05:47:24;-1.40;99.90
11083;DHT22;5595;50.186;8.468;2023-02-27T05:49:56;-1.50;99.90
11083;DHT22;5595;50.186;8.468;2023-02-27T05:52:26;-1.80;99.90
11083;DHT22;5595;50.186;8.468;2023-02-27T05:54:58;-1.80;99.90
11083;DHT22;5595;50.186;8.468;2023-02-27T05:57:29;-1.80;99.90
11083;DHT22;5595;50.186;8.468;2023-02-27T06:00:07;-1.80;99.90
11083;DHT22;5595;50.186;8.468;2023-02-27T06:02:36;-1.80;99.90
11083;DHT22;5595;50.186;8.468;2023-02-27T06:05:03;-1.80;99.90
11083;DHT22;5595;50.186;8.468;2023-02-27T06:07:30;-1.70;99.90
11083;DHT22;5595;50.186;8.468;2023-02-27T06:09:57;-1.80;99.90
11083;DHT22;5595;50.186;8.468;2023-02-27T06:12:25;-1.90;99.90
11083;DHT22;5595;50.186;8.468;2023-02-27T06:14:52;-1.80;99.90
11083;DHT22;5595;50.186;8.468;2023-02-27T06:17:23;-1.90;99.90
11083;DHT22;5595;50.186;8.468;2023-02-27T06:19:49;-1.80;99.90
11083;DHT22;5595;50.186;8.468;2023-02-27T06:22:16;-1.90;99.90
11083;DHT22;5595;50.186;8.468;2023-02-27T06:24:43;-1.70;99.90
11083;DHT22;5595;50.186;8.468;2023-02-27T06:27:10;-1.90;99.90
11083;DHT22;5595;50.186;8.468;2023-02-27T06:29:37;-1.80;99.90
11083;DHT22;5595;50.186;8.468;2023-02-27T06:32:03;-1.80;99.90
11083;DHT22;5595;50.186;8.468;2023-02-27T06:34:33;-1.90;99.90
11083;DHT22;5595;50.186;8.468;2023-02-27T06:37:00;-1.90;99.90
11083;DHT22;5595;50.186;8.468;2023-02-27T06:39:27;-1.90;99.90
11083;DHT22;5595;50.186;8.468;2023-02-27T06:41:54;-1.90;99.90
11083;DHT22;5595;50.186;8.468;2023-02-27T06:44:21;-1.80;99.90
11083;DHT22;5595;50.186;8.468;2023-02-27T06:46:48;-1.70;99.90
11083;DHT22;5595;50.186;8.468;2023-02-27T06:49:14;-1.80;99.90
11083;DHT22;5595;50.186;8.468;2023-02-27T06:51:43;-1.60;99.90
11083;DHT22;5595;50.186;8.468;2023-02-27T06:54:09;-1.70;99.90
11083;DHT22;5595;50.186;8.468;2023-02-27T06:56:36;-1.60;99.90
11083;DHT22;5595;50.186;8.468;2023-02-27T06:59:03;-1.50;99.90
11083;DHT22;5595;50.186;8.468;2023-02-27T07:01:30;-1.60;99.90
11083;DHT22;5595;50.186;8.468;2023-02-27T07:03:57;-1.50;99.90
11083;DHT22;5595;50.186;8.468;2023-02-27T07:06:25;-1.60;99.90
11083;DHT22;5595;50.186;8.468;2023-02-27T07:08:53;-1.60;99.90
11083;DHT22;5595;50.186;8.468;2023-02-27T07:11:21;-1.50;99.90
11083;DHT22;5595;50.186;8.468;2023-02-27T07:13:47;-1.20;99.90
11083;DHT22;5595;50.186;8.468;2023-02-27T07:16:14;-1.40;99.90
11083;DHT22;5595;50.186;8.468;2023-02-27T07:18:41;-1.30;99.90
11083;DHT22;5595;50.186;8.468;2023-02-27T07:21:08;-1.10;99.90
11083;DHT22;5595;50.186;8.468;2023-02-27T07:23:35;-1.00;99.90
11083;DHT22;5595;50.186;8.468;2023-02-27T07:26:04;-0.90;99.90
11083;DHT22;5595;50.186;8.468;2023-02-27T07:28:31;-0.90;99.90
11083;DHT22;5595;50.186;8.468;2023-02-27T07:30:58;-0.80;99.90
11083;DHT22;5595;50.186;8.468;2023-02-27T07:33:25;-0.80;99.90
11083;DHT22;5595;50.186;8.468;2023-02-27T07:35:52;-0.80;99.90
11083;DHT22;5595;50.186;8.468;2023-02-27T07:38:19;-0.40;99.90
11083;DHT22;5595;50.186;8.468;2023-02-27T07:40:47;-0.60;99.90
11083;DHT22;5595;50.186;8.468;2023-02-27T07:43:16;-0.60;99.90
11083;DHT22;5595;50.186;8.468;2023-02-27T07:45:44;-0.60;99.90
11083;DHT22;5595;50.186;8.468;2023-02-27T07:48:11;-0.40;99.90
11083;DHT22;5595;50.186;8.468;2023-02-27T07:50:38;-0.40;99.90
11083;DHT22;5595;50.186;8.468;2023-02-27T07:53:04;-0.30;99.90
11083;DHT22;5595;50.186;8.468;2023-02-27T07:55:32;-0.40;99.90
11083;DHT22;5595;50.186;8.468;2023-02-27T07:57:59;0.20;99.90
11083;DHT22;5595;50.186;8.468;2023-02-27T08:00:28;-0.10;99.90
11083;DHT22;5595;50.186;8.468;2023-02-27T08:02:55;0.00;99.90
11083;DHT22;5595;50.186;8.468;2023-02-27T08:05:22;0.00;99.90
11083;DHT22;5595;50.186;8.468;2023-02-27T08:07:49;0.00;99.90
11083;DHT22;5595;50.186;8.468;2023-02-27T08:10:17;0.20;99.90
11083;DHT22;5595;50.186;8.468;2023-02-27T08:12:44;0.10;99.90
11083;DHT22;5595;50.186;8.468;2023-02-27T08:15:11;0.30;99.90
11083;DHT22;5595;50.186;8.468;2023-02-27T08:17:43;0.10;99.90
11083;DHT22;5595;50.186;8.468;2023-02-27T08:20:11;0.10;99.90
11083;DHT22;5595;50.186;8.468;2023-02-27T08:22:38;0.10;99.90
11083;DHT22;5595;50.186;8.468;2023-02-27T08:25:07;0.10;99.90
11083;DHT22;5595;50.186;8.468;2023-02-27T08:27:36;0.10;99.90
11083;DHT22;5595;50.186;8.468;2023-02-27T08:30:05;0.20;99.90
11083;DHT22;5595;50.186;8.468;2023-02-27T08:32:33;0.20;99.90
11083;DHT22;5595;50.186;8.468;2023-02-27T08:35:01;0.20;99.90
11083;DHT22;5595;50.186;8.468;2023-02-27T08:37:28;0.40;99.90
11083;DHT22;5595;50.186;8.468;2023-02-27T08:39:55;0.30;99.90
11083;DHT22;5595;50.186;8.468;2023-02-27T08:42:23;0.50;99.90
11083;DHT22;5595;50.186;8.468;2023-02-27T08:44:50;0.30;99.90
11083;DHT22;5595;50.186;8.468;2023-02-27T08:47:18;0.40;99.90
11083;DHT22;5595;50.186;8.468;2023-02-27T08:49:45;0.60;99.90
11083;DHT22;5595;50.186;8.468;2023-02-27T08:52:14;0.50;99.90
11083;DHT22;5595;50.186;8.468;2023-02-27T08:54:41;0.50;99.90
11083;DHT22;5595;50.186;8.468;2023-02-27T08:57:08;0.60;99.90
11083;DHT22;5595;50.186;8.468;2023-02-27T08:59:35;0.60;99.90
11083;DHT22;5595;50.186;8.468;2023-02-27T09:02:02;0.70;99.90
11083;DHT22;5595;50.186;8.468;2023-02-27T09:04:29;0.60;99.90
11083;DHT22;5595;50.186;8.468;2023-02-27T09:06:57;0.60;99.90
11083;DHT22;5595;50.186;8.468;2023-02-27T09:09:25;0.70;99.90
11083;DHT22;5595;50.186;8.468;2023-02-27T09:11:52;0.60;99.90
11083;DHT22;5595;50.186;8.468;2023-02-27T09:14:19;0.70;99.90
11083;DHT22;5595;50.186;8.468;2023-02-27T09:16:47;0.70;99.90
11083;DHT22;5595;50.186;8.468;2023-02-27T09:19:14;0.40;99.90
11083;DHT22;5595;50.186;8.468;2023-02-27T09:21:41;0.30;99.90
11083;DHT22;5595;50.186;8.468;2023-02-27T09:24:09;0.20;99.90
11083;DHT22;5595;50.186;8.468;2023-02-27T09:26:37;0.10;99.90
11083;DHT22;5595;50.186;8.468;2023-02-27T09:29:05;0.10;99.90
11083;DHT22;5595;50.186;8.468;2023-02-27T09:31:32;0.10;99.90
11083;DHT22;5595;50.186;8.468;2023-02-27T09:33:59;0.20;99.90
11083;DHT22;5595;50.186;8.468;2023-02-27T09:36:27;0.50;99.90
11083;DHT22;5595;50.186;8.468;2023-02-27T09:38:54;0.60;99.90
11083;DHT22;5595;50.186;8.468;2023-02-27T09:41:41;0.60;99.90
11083;DHT22;5595;50.186;8.468;2023-02-27T09:44:24;0.60;99.90
11083;DHT22;5595;50.186;8.468;2023-02-27T09:46:53;0.60;99.90
11083;DHT22;5595;50.186;8.468;2023-02-27T09:49:23;0.80;99.90
11083;DHT22;5595;50.186;8.468;2023-02-27T09:51:52;1.00;99.90
11083;DHT22;5595;50.186;8.468;2023-02-27T09:54:19;1.20;99.90
11083;DHT22;5595;50.186;8.468;2023-02-27T09:56:50;1.30;99.90
11083;DHT22;5595;50.186;8.468;2023-02-27T09:59:28;1.70;99.90
11083;DHT22;5595;50.186;8.468;2023-02-27T10:02:00;1.70;99.90
11083;DHT22;5595;50.186;8.468;2023-02-27T10:04:39;1.70;99.90
11083;DHT22;5595;50.186;8.468;2023-02-27T10:07:13;1.80;99.90
11083;DHT22;5595;50.186;8.468;2023-02-27T10:09:58;1.80;99.90
11083;DHT22;5595;50.186;8.468;2023-02-27T10:12:40;1.70;99.90
11083;DHT22;5595;50.186;8.468;2023-02-27T10:15:15;1.70;99.90
11083;DHT22;5595;50.186;8.468;2023-02-27T10:17:50;1.80;99.90
11083;DHT22;5595;50.186;8.468;2023-02-27T10:20:23;1.90;99.90
11083;DHT22;5595;50.186;8.468;2023-02-27T10:23:13;2.10;99.90
11083;DHT22;5595;50.186;8.468;2023-02-27T10:25:46;2.30;99.90
11083;DHT22;5595;50.186;8.468;2023-02-27T10:28:17;2.50;99.90
11083;DHT22;5595;50.186;8.468;2023-02-27T10:30:48;2.50;99.90
11083;DHT22;5595;50.186;8.468;2023-02-27T10:33:23;2.60;99.90
11083;DHT22;5595;50.186;8.468;2023-02-27T10:35:51;2.60;99.90
11083;DHT22;5595;50.186;8.468;2023-02-27T10:38:27;2.70;99.90
11083;DHT22;5595;50.186;8.468;2023-02-27T10:40:58;2.40;99.90
11083;DHT22;5595;50.186;8.468;2023-02-27T10:43:27;2.40;99.90
11083;DHT22;5595;50.186;8.468;2023-02-27T10:45:55;2.40;99.90
11083;DHT22;5595;50.186;8.468;2023-02-27T10:48:22;2.50;99.90
11083;DHT22;5595;50.186;8.468;2023-02-27T10:50:51;2.60;99.90
11083;DHT22;5595;50.186;8.468;2023-02-27T10:53:20;2.60;99.90
11083;DHT22;5595;50.186;8.468;2023-02-27T10:55:57;2.50;99.90
11083;DHT22;5595;50.186;8.468;2023-02-27T10:58:26;2.50;99.90
11083;DHT22;5595;50.186;8.468;2023-02-27T11:00:58;2.30;99.90
11083;DHT22;5595;50.186;8.468;2023-02-27T11:03:37;2.20;99.90
11083;DHT22;5595;50.186;8.468;2023-02-27T11:06:06;2.20;99.90
11083;DHT22;5595;50.186;8.468;2023-02-27T11:08:35;2.30;99.90
11083;DHT22;5595;50.186;8.468;2023-02-27T11:11:04;2.60;99.90
11083;DHT22;5595;50.186;8.468;2023-02-27T11:13:35;2.80;99.90
11083;DHT22;5595;50.186;8.468;2023-02-27T11:16:09;2.90;99.90
11083;DHT22;5595;50.186;8.468;2023-02-27T11:18:37;3.10;99.90
11083;DHT22;5595;50.186;8.468;2023-02-27T11:21:20;3.20;99.90
11083;DHT22;5595;50.186;8.468;2023-02-27T11:23:54;3.20;99.90
11083;DHT22;5595;50.186;8.468;2023-02-27T11:26:25;3.20;99.90
11083;DHT22;5595;50.186;8.468;2023-02-27T11:29:16;3.50;99.90
11083;DHT22;5595;50.186;8.468;2023-02-27T11:31:51;3.60;99.90
11083;DHT22;5595;50.186;8.468;2023-02-27T11:34:22;3.80;99.90
11083;DHT22;5595;50.186;8.468;2023-02-27T11:36:53;4.50;99.90
11083;DHT22;5595;50.186;8.468;2023-02-27T11:39:24;4.10;99.90
11083;DHT22;5595;50.186;8.468;2023-02-27T11:41:53;4.20;99.90
11083;DHT22;5595;50.186;8.468;2023-02-27T11:44:27;4.10;99.90
11083;DHT22;5595;50.186;8.468;2023-02-27T11:47:08;4.20;99.90
11083;DHT22;5595;50.186;8.468;2023-02-27T11:49:46;4.20;99.90
11083;DHT22;5595;50.186;8.468;2023-02-27T11:52:21;4.20;99.90
11083;DHT22;5595;50.186;8.468;2023-02-27T11:54:53;4.20;99.90
11083;DHT22;5595;50.186;8.468;2023-02-27T11:57:24;4.10;99.90
11083;DHT22;5595;50.186;8.468;2023-02-27T11:59:59;4.00;99.90
11083;DHT22;5595;50.186;8.468;2023-02-27T12:02:42;3.90;99.90
11083;DHT22;5595;50.186;8.468;2023-02-27T12:05:16;3.90;99.90
11083;DHT22;5595;50.186;8.468;2023-02-27T12:07:47;3.80;99.90
11083;DHT22;5595;50.186;8.468;2023-02-27T12:10:19;3.80;99.90
11083;DHT22;5595;50.186;8.468;2023-02-27T12:13:08;4.00;99.90
11083;DHT22;5595;50.186;8.468;2023-02-27T12:15:47;3.90;99.90
11083;DHT22;5595;50.186;8.468;2023-02-27T12:18:18;3.90;99.90
11083;DHT22;5595;50.186;8.468;2023-02-27T12:20:51;3.60;99.90
11083;DHT22;5595;50.186;8.468;2023-02-27T12:23:24;3.60;99.90
11083;DHT22;5595;50.186;8.468;2023-02-27T12:25:58;3.50;99.90
11083;DHT22;5595;50.186;8.468;2023-02-27T12:28:39;3.60;99.90
11083;DHT22;5595;50.186;8.468;2023-02-27T12:31:44;3.60;99.90
11083;DHT22;5595;50.186;8.468;2023-02-27T12:34:19;3.70;99.90
11083;DHT22;5595;50.186;8.468;2023-02-27T12:36:51;3.70;99.90
11083;DHT22;5595;50.186;8.468;2023-02-27T12:39:20;3.80;99.90
11083;DHT22;5595;50.186;8.468;2023-02-27T12:42:03;3.80;99.90
11083;DHT22;5595;50.186;8.468;2023-02-27T12:44:42;3.80;99.90
11083;DHT22;5595;50.186;8.468;2023-02-27T12:47:26;3.80;99.90
11083;DHT22;5595;50.186;8.468;2023-02-27T12:50:02;3.80;99.90
11083;DHT22;5595;50.186;8.468;2023-02-27T12:52:41;3.80;99.90
11083;DHT22;5595;50.186;8.468;2023-02-27T12:55:14;3.70;99.90
11083;DHT22;5595;50.186;8.468;2023-02-27T13:00:41;3.50;99.90
11083;DHT22;5595;50.186;8.468;2023-02-27T13:03:15;3.70;99.90
11083;DHT22;5595;50.186;8.468;2023-02-27T13:05:49;3.80;99.90
11083;DHT22;5595;50.186;8.468;2023-02-27T13:08:34;3.70;99.90
11083;DHT22;5595;50.186;8.468;2023-02-27T13:11:09;3.70;99.90
11083;DHT22;5595;50.186;8.468;2023-02-27T13:13:47;3.40;99.70
11083;DHT22;5595;50.186;8.468;2023-02-27T13:16:18;3.10;99.70
11083;DHT22;5595;50.186;8.468;2023-02-27T13:18:53;3.00;99.60
11083;DHT22;5595;50.186;8.468;2023-02-27T13:21:26;3.00;99.50
11083;DHT22;5595;50.186;8.468;2023-02-27T13:24:02;3.50;99.60
11083;DHT22;5595;50.186;8.468;2023-02-27T13:26:37;3.90;99.90
11083;DHT22;5595;50.186;8.468;2023-02-27T13:29:05;4.20;99.60
11083;DHT22;5595;50.186;8.468;2023-02-27T13:31:39;4.80;99.90
11083;DHT22;5595;50.186;8.468;2023-02-27T13:34:15;5.10;99.40
11083;DHT22;5595;50.186;8.468;2023-02-27T13:36:45;5.50;99.00
11083;DHT22;5595;50.186;8.468;2023-02-27T13:39:37;5.80;98.70
11083;DHT22;5595;50.186;8.468;2023-02-27T13:45:51;6.00;98.30
11083;DHT22;5595;50.186;8.468;2023-02-27T13:48:41;5.70;96.90
11083;DHT22;5595;50.186;8.468;2023-02-27T13:54:23;5.00;96.30
11083;DHT22;5595;50.186;8.468;2023-02-27T13:59:59;4.40;95.60
11083;DHT22;5595;50.186;8.468;2023-02-27T14:02:39;4.00;95.40
11083;DHT22;5595;50.186;8.468;2023-02-27T14:05:13;3.80;95.50
11083;DHT22;5595;50.186;8.468;2023-02-27T14:07:58;3.70;95.80
11083;DHT22;5595;50.186;8.468;2023-02-27T14:10:29;3.60;95.90
11083;DHT22;5595;50.186;8.468;2023-02-27T14:12:57;3.80;96.10
11083;DHT22;5595;50.186;8.468;2023-02-27T14:15:48;4.10;96.20
11083;DHT22;5595;50.186;8.468;2023-02-27T14:18:54;4.40;95.90
11083;DHT22;5595;50.186;8.468;2023-02-27T14:21:57;4.60;96.10
11083;DHT22;5595;50.186;8.468;2023-02-27T14:24:35;4.70;96.30
11083;DHT22;5595;50.186;8.468;2023-02-27T14:27:15;4.80;95.70
11083;DHT22;5595;50.186;8.468;2023-02-27T14:29:45;4.70;94.80
11083;DHT22;5595;50.186;8.468;2023-02-27T14:32:18;4.70;94.60
11083;DHT22;5595;50.186;8.468;2023-02-27T14:34:46;4.70;94.30
11083;DHT22;5595;50.186;8.468;2023-02-27T14:37:16;4.60;94.20
11083;DHT22;5595;50.186;8.468;2023-02-27T14:39:48;4.60;94.30
11083;DHT22;5595;50.186;8.468;2023-02-27T14:42:29;4.60;94.20
11083;DHT22;5595;50.186;8.468;2023-02-27T14:45:02;4.50;93.90
11083;DHT22;5595;50.186;8.468;2023-02-27T14:47:32;4.50;93.70
11083;DHT22;5595;50.186;8.468;2023-02-27T14:50:02;4.50;93.50
11083;DHT22;5595;50.186;8.468;2023-02-27T14:52:38;4.30;93.50
11083;DHT22;5595;50.186;8.468;2023-02-27T14:55:19;4.30;94.10
11083;DHT22;5595;50.186;8.468;2023-02-27T14:57:55;4.30;94.00
11083;DHT22;5595;50.186;8.468;2023-02-27T15:00:34;4.10;94.00
11083;DHT22;5595;50.186;8.468;2023-02-27T15:03:14;4.30;94.30
11083;DHT22;5595;50.186;8.468;2023-02-27T15:05:42;4.20;94.20
11083;DHT22;5595;50.186;8.468;2023-02-27T15:08:14;4.20;93.50
11083;DHT22;5595;50.186;8.468;2023-02-27T15:10:42;4.30;93.50
11083;DHT22;5595;50.186;8.468;2023-02-27T15:13:20;4.10;93.60
11083;DHT22;5595;50.186;8.468;2023-02-27T15:15:48;4.20;93.80
11083;DHT22;5595;50.186;8.468;2023-02-27T15:18:20;4.20;93.80
11083;DHT22;5595;50.186;8.468;2023-02-27T15:20:55;4.20;93.70
11083;DHT22;5595;50.186;8.468;2023-02-27T15:23:25;4.10;93.80
11083;DHT22;5595;50.186;8.468;2023-02-27T15:25:54;4.10;93.70
11083;DHT22;5595;50.186;8.468;2023-02-27T15:28:25;3.90;93.40
11083;DHT22;5595;50.186;8.468;2023-02-27T15:30:54;4.20;93.50
11083;DHT22;5595;50.186;8.468;2023-02-27T15:33:25;3.90;93.40
11083;DHT22;5595;50.186;8.468;2023-02-27T15:35:54;3.90;93.40
11083;DHT22;5595;50.186;8.468;2023-02-27T15:38:25;3.90;93.30
11083;DHT22;5595;50.186;8.468;2023-02-27T15:40:53;3.80;93.10
11083;DHT22;5595;50.186;8.468;2023-02-27T15:43:24;3.70;93.20
11083;DHT22;5595;50.186;8.468;2023-02-27T15:45:54;3.70;93.50
11083;DHT22;5595;50.186;8.468;2023-02-27T15:48:23;3.60;93.60
11083;DHT22;5595;50.186;8.468;2023-02-27T15:50:53;3.60;93.90
11083;DHT22;5595;50.186;8.468;2023-02-27T15:53:21;3.60;93.80
11083;DHT22;5595;50.186;8.468;2023-02-27T15:55:50;3.70;93.60
11083;DHT22;5595;50.186;8.468;2023-02-27T15:58:21;3.70;93.40
11083;DHT22;5595;50.186;8.468;2023-02-27T16:00:56;3.40;93.20
11083;DHT22;5595;50.186;8.468;2023-02-27T16:03:27;3.40;93.40
11083;DHT22;5595;50.186;8.468;2023-02-27T16:05:57;3.30;93.50
11083;DHT22;5595;50.186;8.468;2023-02-27T16:08:24;3.30;93.40
11083;DHT22;5595;50.186;8.468;2023-02-27T16:10:53;3.30;93.60
11083;DHT22;5595;50.186;8.468;2023-02-27T16:13:24;3.30;93.70
11083;DHT22;5595;50.186;8.468;2023-02-27T16:16:00;3.30;93.40
11083;DHT22;5595;50.186;8.468;2023-02-27T16:18:31;3.10;93.30
11083;DHT22;5595;50.186;8.468;2023-02-27T16:21:08;3.10;93.20
11083;DHT22;5595;50.186;8.468;2023-02-27T16:23:36;3.20;93.30
11083;DHT22;5595;50.186;8.468;2023-02-27T16:26:06;3.00;93.20
11083;DHT22;5595;50.186;8.468;2023-02-27T16:28:50;2.90;93.10
11083;DHT22;5595;50.186;8.468;2023-02-27T16:31:25;2.80;93.30
11083;DHT22;5595;50.186;8.468;2023-02-27T16:33:55;2.80;93.20
11083;DHT22;5595;50.186;8.468;2023-02-27T16:36:23;2.80;93.30
11083;DHT22;5595;50.186;8.468;2023-02-27T16:38:51;2.70;93.40
11083;DHT22;5595;50.186;8.468;2023-02-27T16:41:19;2.70;93.50
11083;DHT22;5595;50.186;8.468;2023-02-27T16:43:47;2.80;94.10
11083;DHT22;5595;50.186;8.468;2023-02-27T16:46:16;2.60;93.60
11083;DHT22;5595;50.186;8.468;2023-02-27T16:48:48;2.60;93.70
11083;DHT22;5595;50.186;8.468;2023-02-27T16:51:18;2.60;94.00